sensor_id;sensor_type;location;lat;lon;timestamp;temperature;humidity
52555;DHT22;38455;52.710;6.502;2022-09-03T00:00:21;17.20;75.60
52555;DHT22;38455;52.710;6.502;2022-09-03T00:05:37;17.10;75.60
52555;DHT22;38455;52.710;6.502;2022-09-03T00:10:52;17.00;76.00
52555;DHT22;38455;52.710;6.502;2022-09-03T00:13:32;17.00;75.80
52555;DHT22;38455;52.710;6.502;2022-09-03T00:15:59;17.00;75.90
52555;DHT22;38455;52.710;6.502;2022-09-03T00:18:29;16.90;75.90
52555;DHT22;38455;52.710;6.502;2022-09-03T00:21:17;16.90;76.10
52555;DHT22;38455;52.710;6.502;2022-09-03T00:23:47;16.90;77.20
52555;DHT22;38455;52.710;6.502;2022-09-03T00:26:34;16.90;76.10
52555;DHT22;38455;52.710;6.502;2022-09-03T00:29:06;16.80;76.70
52555;DHT22;38455;52.710;6.502;2022-09-03T00:31:39;16.80;76.60
52555;DHT22;38455;52.710;6.502;2022-09-03T00:36:53;16.80;77.00
52555;DHT22;38455;52.710;6.502;2022-09-03T00:39:21;16.70;76.70
52555;DHT22;38455;52.710;6.502;2022-09-03T00:41:58;16.70;77.10
52555;DHT22;38455;52.710;6.502;2022-09-03T00:53:29;16.60;77.90
52555;DHT22;38455;52.710;6.502;2022-09-03T00:58:54;16.40;78.10
52555;DHT22;38455;52.710;6.502;2022-09-03T01:01:34;16.40;78.50
52555;DHT22;38455;52.710;6.502;2022-09-03T01:04:22;16.40;78.30
52555;DHT22;38455;52.710;6.502;2022-09-03T01:07:03;16.40;78.70
52555;DHT22;38455;52.710;6.502;2022-09-03T01:26:16;16.00;80.60
52555;DHT22;38455;52.710;6.502;2022-09-03T01:45:55;15.90;81.80
52555;DHT22;38455;52.710;6.502;2022-09-03T01:48:38;15.80;82.00
52555;DHT22;38455;52.710;6.502;2022-09-03T01:54:23;15.90;82.20
52555;DHT22;38455;52.710;6.502;2022-09-03T01:59:46;15.90;82.40
52555;DHT22;38455;52.710;6.502;2022-09-03T02:02:22;15.90;82.90
52555;DHT22;38455;52.710;6.502;2022-09-03T02:07:33;15.90;83.80
52555;DHT22;38455;52.710;6.502;2022-09-03T02:10:01;15.90;83.40
52555;DHT22;38455;52.710;6.502;2022-09-03T02:12:29;15.90;83.50
52555;DHT22;38455;52.710;6.502;2022-09-03T02:15:02;15.90;83.90
52555;DHT22;38455;52.710;6.502;2022-09-03T02:17:31;15.80;84.10
52555;DHT22;38455;52.710;6.502;2022-09-03T02:19:57;15.90;83.90
52555;DHT22;38455;52.710;6.502;2022-09-03T02:22:23;15.90;83.90
52555;DHT22;38455;52.710;6.502;2022-09-03T02:24:49;15.90;84.10
52555;DHT22;38455;52.710;6.502;2022-09-03T02:27:15;15.90;84.10
52555;DHT22;38455;52.710;6.502;2022-09-03T02:29:41;16.00;83.90
52555;DHT22;38455;52.710;6.502;2022-09-03T02:32:06;16.00;84.10
52555;DHT22;38455;52.710;6.502;2022-09-03T02:34:32;16.00;84.00
52555;DHT22;38455;52.710;6.502;2022-09-03T02:36:58;16.00;84.40
52555;DHT22;38455;52.710;6.502;2022-09-03T02:39:23;16.00;84.20
52555;DHT22;38455;52.710;6.502;2022-09-03T02:41:54;16.00;84.50
52555;DHT22;38455;52.710;6.502;2022-09-03T02:44:28;16.10;84.50
52555;DHT22;38455;52.710;6.502;2022-09-03T02:47:00;16.10;84.60
52555;DHT22;38455;52.710;6.502;2022-09-03T02:49:27;16.10;84.60
52555;DHT22;38455;52.710;6.502;2022-09-03T02:52:01;16.10;84.60
52555;DHT22;38455;52.710;6.502;2022-09-03T02:54:30;16.10;84.70
52555;DHT22;38455;52.710;6.502;2022-09-03T02:56:58;16.10;84.70
52555;DHT22;38455;52.710;6.502;2022-09-03T02:59:24;16.10;84.70
52555;DHT22;38455;52.710;6.502;2022-09-03T03:01:53;16.10;85.00
52555;DHT22;38455;52.710;6.502;2022-09-03T03:04:19;16.10;85.60
52555;DHT22;38455;52.710;6.502;2022-09-03T03:06:45;16.00;85.00
52555;DHT22;38455;52.710;6.502;2022-09-03T03:09:10;16.00;85.30
52555;DHT22;38455;52.710;6.502;2022-09-03T03:11:36;16.00;85.40
52555;DHT22;38455;52.710;6.502;2022-09-03T03:14:02;16.00;85.60
52555;DHT22;38455;52.710;6.502;2022-09-03T03:16:28;15.90;85.80
52555;DHT22;38455;52.710;6.502;2022-09-03T03:18:55;16.00;86.00
52555;DHT22;38455;52.710;6.502;2022-09-03T03:21:21;15.90;86.60
52555;DHT22;38455;52.710;6.502;2022-09-03T03:23:47;15.80;86.40
52555;DHT22;38455;52.710;6.502;2022-09-03T03:26:15;15.80;86.70
52555;DHT22;38455;52.710;6.502;2022-09-03T03:28:46;15.80;86.90
52555;DHT22;38455;52.710;6.502;2022-09-03T03:31:15;15.80;87.40
52555;DHT22;38455;52.710;6.502;2022-09-03T03:33:41;15.70;87.50
52555;DHT22;38455;52.710;6.502;2022-09-03T03:36:09;15.70;87.50
52555;DHT22;38455;52.710;6.502;2022-09-03T03:38:36;15.80;87.80
52555;DHT22;38455;52.710;6.502;2022-09-03T03:41:15;15.70;88.20
52555;DHT22;38455;52.710;6.502;2022-09-03T03:43:42;15.60;88.40
52555;DHT22;38455;52.710;6.502;2022-09-03T03:46:08;15.60;88.60
52555;DHT22;38455;52.710;6.502;2022-09-03T03:48:35;15.60;89.40
52555;DHT22;38455;52.710;6.502;2022-09-03T03:51:02;15.50;89.90
52555;DHT22;38455;52.710;6.502;2022-09-03T03:53:30;15.50;89.90
52555;DHT22;38455;52.710;6.502;2022-09-03T03:56:01;15.50;90.10
52555;DHT22;38455;52.710;6.502;2022-09-03T03:58:28;15.40;90.20
52555;DHT22;38455;52.710;6.502;2022-09-03T04:00:54;15.40;90.50
52555;DHT22;38455;52.710;6.502;2022-09-03T04:03:20;15.40;90.60
52555;DHT22;38455;52.710;6.502;2022-09-03T04:05:58;15.30;90.70
52555;DHT22;38455;52.710;6.502;2022-09-03T04:08:25;15.30;91.60
52555;DHT22;38455;52.710;6.502;2022-09-03T04:10:51;15.20;91.20
52555;DHT22;38455;52.710;6.502;2022-09-03T04:13:17;15.20;91.40
52555;DHT22;38455;52.710;6.502;2022-09-03T04:15:43;15.10;91.70
52555;DHT22;38455;52.710;6.502;2022-09-03T04:18:09;15.10;92.20
52555;DHT22;38455;52.710;6.502;2022-09-03T04:20:35;15.00;92.30
52555;DHT22;38455;52.710;6.502;2022-09-03T04:23:01;15.00;93.10
52555;DHT22;38455;52.710;6.502;2022-09-03T04:25:26;14.90;93.00
52555;DHT22;38455;52.710;6.502;2022-09-03T04:27:52;14.90;93.40
52555;DHT22;38455;52.710;6.502;2022-09-03T04:30:18;14.90;93.80
52555;DHT22;38455;52.710;6.502;2022-09-03T04:32:44;14.80;94.30
52555;DHT22;38455;52.710;6.502;2022-09-03T04:35:23;14.70;94.60
52555;DHT22;38455;52.710;6.502;2022-09-03T04:37:50;14.70;95.20
52555;DHT22;38455;52.710;6.502;2022-09-03T04:40:15;14.70;95.30
52555;DHT22;38455;52.710;6.502;2022-09-03T04:42:41;14.60;95.60
52555;DHT22;38455;52.710;6.502;2022-09-03T04:45:07;14.60;95.90
52555;DHT22;38455;52.710;6.502;2022-09-03T04:47:33;14.60;96.30
52555;DHT22;38455;52.710;6.502;2022-09-03T04:50:02;14.50;96.50
52555;DHT22;38455;52.710;6.502;2022-09-03T04:52:28;14.50;96.90
52555;DHT22;38455;52.710;6.502;2022-09-03T04:54:56;14.50;97.30
52555;DHT22;38455;52.710;6.502;2022-09-03T04:57:22;14.50;97.70
52555;DHT22;38455;52.710;6.502;2022-09-03T04:59:47;14.40;97.90
52555;DHT22;38455;52.710;6.502;2022-09-03T05:02:13;14.40;98.20
52555;DHT22;38455;52.710;6.502;2022-09-03T05:04:40;14.40;98.40
52555;DHT22;38455;52.710;6.502;2022-09-03T05:07:06;14.40;98.90
52555;DHT22;38455;52.710;6.502;2022-09-03T05:09:32;14.40;99.30
52555;DHT22;38455;52.710;6.502;2022-09-03T05:11:57;14.40;99.30
52555;DHT22;38455;52.710;6.502;2022-09-03T05:14:23;14.50;99.70
52555;DHT22;38455;52.710;6.502;2022-09-03T05:16:48;14.50;99.70
52555;DHT22;38455;52.710;6.502;2022-09-03T05:19:14;14.50;99.70
52555;DHT22;38455;52.710;6.502;2022-09-03T05:21:40;14.50;99.90
52555;DHT22;38455;52.710;6.502;2022-09-03T05:24:07;14.60;99.90
52555;DHT22;38455;52.710;6.502;2022-09-03T05:26:37;14.60;99.90
52555;DHT22;38455;52.710;6.502;2022-09-03T05:29:05;14.60;99.90
52555;DHT22;38455;52.710;6.502;2022-09-03T05:31:36;14.70;99.90
52555;DHT22;38455;52.710;6.502;2022-09-03T05:34:04;14.70;99.90
52555;DHT22;38455;52.710;6.502;2022-09-03T05:36:32;14.80;99.90
52555;DHT22;38455;52.710;6.502;2022-09-03T05:38:59;14.80;99.90
52555;DHT22;38455;52.710;6.502;2022-09-03T05:41:26;14.80;99.90
52555;DHT22;38455;52.710;6.502;2022-09-03T05:43:52;14.90;99.90
52555;DHT22;38455;52.710;6.502;2022-09-03T05:46:25;15.00;99.90
52555;DHT22;38455;52.710;6.502;2022-09-03T05:48:56;15.00;99.90
52555;DHT22;38455;52.710;6.502;2022-09-03T05:51:23;15.00;99.90
52555;DHT22;38455;52.710;6.502;2022-09-03T05:53:48;15.10;99.90
52555;DHT22;38455;52.710;6.502;2022-09-03T05:56:19;15.20;99.90
52555;DHT22;38455;52.710;6.502;2022-09-03T05:58:49;15.20;99.90
52555;DHT22;38455;52.710;6.502;2022-09-03T06:01:28;15.40;99.90
52555;DHT22;38455;52.710;6.502;2022-09-03T06:03:57;15.50;99.90
52555;DHT22;38455;52.710;6.502;2022-09-03T06:06:28;16.00;99.20
52555;DHT22;38455;52.710;6.502;2022-09-03T06:08:56;16.50;97.80
52555;DHT22;38455;52.710;6.502;2022-09-03T06:11:26;17.30;96.60
52555;DHT22;38455;52.710;6.502;2022-09-03T06:13:58;17.80;95.10
52555;DHT22;38455;52.710;6.502;2022-09-03T06:16:28;17.90;93.70
52555;DHT22;38455;52.710;6.502;2022-09-03T06:18:54;17.70;94.00
52555;DHT22;38455;52.710;6.502;2022-09-03T06:21:19;17.90;93.80
52555;DHT22;38455;52.710;6.502;2022-09-03T06:23:50;18.00;93.50
52555;DHT22;38455;52.710;6.502;2022-09-03T06:26:21;18.20;92.80
52555;DHT22;38455;52.710;6.502;2022-09-03T06:28:47;18.20;93.00
52555;DHT22;38455;52.710;6.502;2022-09-03T06:31:16;18.40;92.70
52555;DHT22;38455;52.710;6.502;2022-09-03T06:33:42;18.30;92.40
52555;DHT22;38455;52.710;6.502;2022-09-03T06:36:13;18.50;92.30
52555;DHT22;38455;52.710;6.502;2022-09-03T06:38:40;19.50;91.50
52555;DHT22;38455;52.710;6.502;2022-09-03T06:41:17;20.50;90.40
52555;DHT22;38455;52.710;6.502;2022-09-03T06:43:50;21.10;86.60
52555;DHT22;38455;52.710;6.502;2022-09-03T06:46:19;21.60;85.90
52555;DHT22;38455;52.710;6.502;2022-09-03T06:48:45;21.70;83.70
52555;DHT22;38455;52.710;6.502;2022-09-03T06:51:17;22.10;82.90
52555;DHT22;38455;52.710;6.502;2022-09-03T06:53:46;22.20;80.90
52555;DHT22;38455;52.710;6.502;2022-09-03T06:56:14;23.00;79.50
52555;DHT22;38455;52.710;6.502;2022-09-03T06:58:44;22.90;77.20
52555;DHT22;38455;52.710;6.502;2022-09-03T07:01:18;23.10;76.40
52555;DHT22;38455;52.710;6.502;2022-09-03T07:03:46;23.20;74.00
52555;DHT22;38455;52.710;6.502;2022-09-03T07:06:14;23.60;75.60
52555;DHT22;38455;52.710;6.502;2022-09-03T07:08:40;23.90;74.60
52555;DHT22;38455;52.710;6.502;2022-09-03T07:11:10;24.00;73.60
52555;DHT22;38455;52.710;6.502;2022-09-03T07:13:44;24.50;72.40
52555;DHT22;38455;52.710;6.502;2022-09-03T07:16:17;24.30;70.10
52555;DHT22;38455;52.710;6.502;2022-09-03T07:18:43;24.50;71.00
52555;DHT22;38455;52.710;6.502;2022-09-03T07:21:12;24.70;69.60
52555;DHT22;38455;52.710;6.502;2022-09-03T07:23:38;24.20;69.10
52555;DHT22;38455;52.710;6.502;2022-09-03T07:26:07;24.50;69.20
52555;DHT22;38455;52.710;6.502;2022-09-03T07:28:36;25.10;68.40
52555;DHT22;38455;52.710;6.502;2022-09-03T07:31:07;25.30;68.40
52555;DHT22;38455;52.710;6.502;2022-09-03T07:33:33;25.70;67.70
52555;DHT22;38455;52.710;6.502;2022-09-03T07:36:14;26.00;67.20
52555;DHT22;38455;52.710;6.502;2022-09-03T07:38:40;26.00;65.00
52555;DHT22;38455;52.710;6.502;2022-09-03T07:41:09;25.90;66.10
52555;DHT22;38455;52.710;6.502;2022-09-03T07:43:43;25.50;64.20
52555;DHT22;38455;52.710;6.502;2022-09-03T07:46:15;26.00;65.20
52555;DHT22;38455;52.710;6.502;2022-09-03T07:48:58;26.20;64.80
52555;DHT22;38455;52.710;6.502;2022-09-03T07:51:26;26.30;63.00
52555;DHT22;38455;52.710;6.502;2022-09-03T07:53:57;26.50;63.20
52555;DHT22;38455;52.710;6.502;2022-09-03T07:56:24;26.80;62.10
52555;DHT22;38455;52.710;6.502;2022-09-03T07:58:50;26.30;62.60
52555;DHT22;38455;52.710;6.502;2022-09-03T08:01:18;26.20;63.10
52555;DHT22;38455;52.710;6.502;2022-09-03T08:03:46;25.80;62.10
52555;DHT22;38455;52.710;6.502;2022-09-03T08:06:13;26.80;62.50
52555;DHT22;38455;52.710;6.502;2022-09-03T08:08:39;27.30;61.40
52555;DHT22;38455;52.710;6.502;2022-09-03T08:11:08;27.70;60.70
52555;DHT22;38455;52.710;6.502;2022-09-03T08:13:39;27.20;59.80
52555;DHT22;38455;52.710;6.502;2022-09-03T08:16:09;27.60;60.00
52555;DHT22;38455;52.710;6.502;2022-09-03T08:18:35;27.80;60.90
52555;DHT22;38455;52.710;6.502;2022-09-03T08:21:09;28.10;60.50
52555;DHT22;38455;52.710;6.502;2022-09-03T08:23:38;28.20;59.60
52555;DHT22;38455;52.710;6.502;2022-09-03T08:26:05;28.20;58.90
52555;DHT22;38455;52.710;6.502;2022-09-03T08:28:31;28.00;59.10
52555;DHT22;38455;52.710;6.502;2022-09-03T08:31:07;28.60;59.30
52555;DHT22;38455;52.710;6.502;2022-09-03T08:33:39;28.50;58.30
52555;DHT22;38455;52.710;6.502;2022-09-03T08:36:09;28.50;58.30
52555;DHT22;38455;52.710;6.502;2022-09-03T08:38:37;28.10;58.60
52555;DHT22;38455;52.710;6.502;2022-09-03T08:41:18;28.50;58.40
52555;DHT22;38455;52.710;6.502;2022-09-03T08:46:54;29.20;57.50
52555;DHT22;38455;52.710;6.502;2022-09-03T08:55:26;30.10;56.50
52555;DHT22;38455;52.710;6.502;2022-09-03T09:00:51;30.10;55.70
52555;DHT22;38455;52.710;6.502;2022-09-03T09:06:17;30.00;55.20
52555;DHT22;38455;52.710;6.502;2022-09-03T09:09:06;29.90;55.00
52555;DHT22;38455;52.710;6.502;2022-09-03T09:20:19;30.20;55.50
52555;DHT22;38455;52.710;6.502;2022-09-03T09:22:50;30.20;54.30
52555;DHT22;38455;52.710;6.502;2022-09-03T09:25:19;30.20;54.20
52555;DHT22;38455;52.710;6.502;2022-09-03T09:27:59;30.00;55.10
52555;DHT22;38455;52.710;6.502;2022-09-03T09:30:26;30.20;54.10
52555;DHT22;38455;52.710;6.502;2022-09-03T09:32:52;30.40;54.50
52555;DHT22;38455;52.710;6.502;2022-09-03T09:35:18;30.30;54.30
52555;DHT22;38455;52.710;6.502;2022-09-03T09:37:52;30.90;54.40
52555;DHT22;38455;52.710;6.502;2022-09-03T09:40:33;30.50;53.30
52555;DHT22;38455;52.710;6.502;2022-09-03T09:43:14;30.70;53.90
52555;DHT22;38455;52.710;6.502;2022-09-03T09:45:46;30.90;52.90
52555;DHT22;38455;52.710;6.502;2022-09-03T09:50:48;31.60;53.10
52555;DHT22;38455;52.710;6.502;2022-09-03T09:53:17;31.60;52.80
52555;DHT22;38455;52.710;6.502;2022-09-03T09:55:54;31.70;52.40
52555;DHT22;38455;52.710;6.502;2022-09-03T09:58:22;32.10;52.20
52555;DHT22;38455;52.710;6.502;2022-09-03T10:01:04;31.60;52.20
52555;DHT22;38455;52.710;6.502;2022-09-03T10:03:50;31.90;51.40
52555;DHT22;38455;52.710;6.502;2022-09-03T10:06:16;32.10;51.60
52555;DHT22;38455;52.710;6.502;2022-09-03T10:09:12;32.50;51.00
52555;DHT22;38455;52.710;6.502;2022-09-03T10:11:50;32.40;50.70
52555;DHT22;38455;52.710;6.502;2022-09-03T10:14:27;32.40;51.40
52555;DHT22;38455;52.710;6.502;2022-09-03T10:17:04;32.20;50.90
52555;DHT22;38455;52.710;6.502;2022-09-03T10:25:28;32.40;51.20
52555;DHT22;38455;52.710;6.502;2022-09-03T10:27:54;32.70;50.70
52555;DHT22;38455;52.710;6.502;2022-09-03T10:30:21;32.50;50.50
52555;DHT22;38455;52.710;6.502;2022-09-03T10:34:00;32.50;50.70
52555;DHT22;38455;52.710;6.502;2022-09-03T10:38:42;33.30;49.80
52555;DHT22;38455;52.710;6.502;2022-09-03T10:44:26;33.60;48.00
52555;DHT22;38455;52.710;6.502;2022-09-03T10:47:21;33.00;48.30
52555;DHT22;38455;52.710;6.502;2022-09-03T10:55:24;33.90;47.90
52555;DHT22;38455;52.710;6.502;2022-09-03T10:58:08;34.10;48.20
52555;DHT22;38455;52.710;6.502;2022-09-03T11:00:48;33.40;46.90
52555;DHT22;38455;52.710;6.502;2022-09-03T11:03:24;33.20;47.80
52555;DHT22;38455;52.710;6.502;2022-09-03T11:06:02;33.40;48.10
52555;DHT22;38455;52.710;6.502;2022-09-03T11:08:36;33.10;48.10
52555;DHT22;38455;52.710;6.502;2022-09-03T11:11:17;33.00;47.40
52555;DHT22;38455;52.710;6.502;2022-09-03T11:14:22;33.00;47.00
52555;DHT22;38455;52.710;6.502;2022-09-03T11:16:51;33.00;47.10
52555;DHT22;38455;52.710;6.502;2022-09-03T11:19:31;32.80;47.10
52555;DHT22;38455;52.710;6.502;2022-09-03T11:21:57;32.60;47.80
52555;DHT22;38455;52.710;6.502;2022-09-03T11:24:25;32.80;47.60
52555;DHT22;38455;52.710;6.502;2022-09-03T11:29:44;33.00;46.50
52555;DHT22;38455;52.710;6.502;2022-09-03T11:32:19;33.40;47.30
52555;DHT22;38455;52.710;6.502;2022-09-03T11:34:52;33.00;46.70
52555;DHT22;38455;52.710;6.502;2022-09-03T11:37:22;33.20;46.40
52555;DHT22;38455;52.710;6.502;2022-09-03T11:39:57;33.90;46.50
52555;DHT22;38455;52.710;6.502;2022-09-03T11:42:35;33.90;46.40
52555;DHT22;38455;52.710;6.502;2022-09-03T11:47:52;33.40;45.40
52555;DHT22;38455;52.710;6.502;2022-09-03T11:50:29;33.60;46.00
52555;DHT22;38455;52.710;6.502;2022-09-03T11:55:53;33.60;45.40
52555;DHT22;38455;52.710;6.502;2022-09-03T11:58:34;33.70;45.90
52555;DHT22;38455;52.710;6.502;2022-09-03T12:01:03;33.60;45.40
52555;DHT22;38455;52.710;6.502;2022-09-03T12:09:06;33.50;45.00
52555;DHT22;38455;52.710;6.502;2022-09-03T12:14:20;33.30;45.90
52555;DHT22;38455;52.710;6.502;2022-09-03T12:16:56;33.80;45.60
52555;DHT22;38455;52.710;6.502;2022-09-03T12:19:44;33.50;45.70
52555;DHT22;38455;52.710;6.502;2022-09-03T12:22:14;34.00;45.00
52555;DHT22;38455;52.710;6.502;2022-09-03T12:24:41;33.70;44.80
52555;DHT22;38455;52.710;6.502;2022-09-03T12:27:18;33.80;44.70
52555;DHT22;38455;52.710;6.502;2022-09-03T12:29:57;33.10;45.10
52555;DHT22;38455;52.710;6.502;2022-09-03T12:32:34;33.10;45.80
52555;DHT22;38455;52.710;6.502;2022-09-03T12:35:30;33.00;46.30
52555;DHT22;38455;52.710;6.502;2022-09-03T12:37:56;32.50;46.20
52555;DHT22;38455;52.710;6.502;2022-09-03T12:40:24;32.50;46.40
52555;DHT22;38455;52.710;6.502;2022-09-03T12:42:51;31.70;46.80
52555;DHT22;38455;52.710;6.502;2022-09-03T12:45:23;31.70;47.20
52555;DHT22;38455;52.710;6.502;2022-09-03T12:47:49;31.30;47.60
52555;DHT22;38455;52.710;6.502;2022-09-03T12:50:18;30.50;47.80
52555;DHT22;38455;52.710;6.502;2022-09-03T12:52:47;30.20;48.30
52555;DHT22;38455;52.710;6.502;2022-09-03T12:55:39;29.90;48.60
52555;DHT22;38455;52.710;6.502;2022-09-03T12:58:46;29.70;48.30
52555;DHT22;38455;52.710;6.502;2022-09-03T13:01:08;29.00;49.00
52555;DHT22;38455;52.710;6.502;2022-09-03T13:06:47;29.20;49.60
52555;DHT22;38455;52.710;6.502;2022-09-03T13:09:17;29.10;49.40
52555;DHT22;38455;52.710;6.502;2022-09-03T13:11:44;29.10;49.70
52555;DHT22;38455;52.710;6.502;2022-09-03T13:14:11;29.00;50.00
52555;DHT22;38455;52.710;6.502;2022-09-03T13:32:22;28.80;50.60
52555;DHT22;38455;52.710;6.502;2022-09-03T13:35:07;29.30;49.70
52555;DHT22;38455;52.710;6.502;2022-09-03T13:40:44;30.10;49.10
52555;DHT22;38455;52.710;6.502;2022-09-03T13:43:23;30.50;48.50
52555;DHT22;38455;52.710;6.502;2022-09-03T13:48:38;31.50;48.20
52555;DHT22;38455;52.710;6.502;2022-09-03T13:51:37;32.20;47.50
52555;DHT22;38455;52.710;6.502;2022-09-03T13:54:22;32.00;46.80
52555;DHT22;38455;52.710;6.502;2022-09-03T13:57:15;31.80;47.10
52555;DHT22;38455;52.710;6.502;2022-09-03T14:00:41;31.80;46.90
52555;DHT22;38455;52.710;6.502;2022-09-03T14:03:30;31.50;47.40
52555;DHT22;38455;52.710;6.502;2022-09-03T14:06:19;31.00;48.30
52555;DHT22;38455;52.710;6.502;2022-09-03T14:09:00;30.40;48.30
52555;DHT22;38455;52.710;6.502;2022-09-03T14:14:40;29.40;49.90
52555;DHT22;38455;52.710;6.502;2022-09-03T14:17:13;29.30;50.90
52555;DHT22;38455;52.710;6.502;2022-09-03T14:20:02;29.00;50.30
52555;DHT22;38455;52.710;6.502;2022-09-03T14:25:15;28.90;50.90
52555;DHT22;38455;52.710;6.502;2022-09-03T14:27:41;28.50;51.10
52555;DHT22;38455;52.710;6.502;2022-09-03T14:30:31;28.60;50.60
52555;DHT22;38455;52.710;6.502;2022-09-03T14:49:20;28.60;51.40
52555;DHT22;38455;52.710;6.502;2022-09-03T14:54:48;28.40;51.40
52555;DHT22;38455;52.710;6.502;2022-09-03T14:57:45;28.30;51.00
52555;DHT22;38455;52.710;6.502;2022-09-03T15:00:14;28.30;51.50
52555;DHT22;38455;52.710;6.502;2022-09-03T15:05:27;28.40;51.10
52555;DHT22;38455;52.710;6.502;2022-09-03T15:08:08;28.20;51.50
52555;DHT22;38455;52.710;6.502;2022-09-03T15:10:37;28.30;51.80
52555;DHT22;38455;52.710;6.502;2022-09-03T15:13:23;28.20;51.80
52555;DHT22;38455;52.710;6.502;2022-09-03T15:16:17;28.10;51.60
52555;DHT22;38455;52.710;6.502;2022-09-03T15:30:14;27.40;52.60
52555;DHT22;38455;52.710;6.502;2022-09-03T15:38:39;27.40;53.00
52555;DHT22;38455;52.710;6.502;2022-09-03T15:41:16;27.50;53.00
52555;DHT22;38455;52.710;6.502;2022-09-03T15:43:47;27.50;53.20
52555;DHT22;38455;52.710;6.502;2022-09-03T15:59:58;27.10;53.60
52555;DHT22;38455;52.710;6.502;2022-09-03T16:02:33;27.20;53.80
52555;DHT22;38455;52.710;6.502;2022-09-03T16:08:07;27.20;53.20
52555;DHT22;38455;52.710;6.502;2022-09-03T16:11:00;27.10;53.90
52555;DHT22;38455;52.710;6.502;2022-09-03T16:13:53;27.10;54.50
52555;DHT22;38455;52.710;6.502;2022-09-03T16:19:00;26.90;54.10
52555;DHT22;38455;52.710;6.502;2022-09-03T16:24:21;26.70;54.50
52555;DHT22;38455;52.710;6.502;2022-09-03T16:26:57;26.80;54.70
52555;DHT22;38455;52.710;6.502;2022-09-03T16:29:26;26.70;54.60
52555;DHT22;38455;52.710;6.502;2022-09-03T16:32:22;26.70;54.50
52555;DHT22;38455;52.710;6.502;2022-09-03T16:51:39;26.50;56.00
52555;DHT22;38455;52.710;6.502;2022-09-03T16:57:01;26.50;56.50
52555;DHT22;38455;52.710;6.502;2022-09-03T17:00:15;26.30;56.70
52555;DHT22;38455;52.710;6.502;2022-09-03T17:08:07;26.20;57.10
52555;DHT22;38455;52.710;6.502;2022-09-03T17:13:44;26.00;57.60
52555;DHT22;38455;52.710;6.502;2022-09-03T17:19:17;25.90;57.60
52555;DHT22;38455;52.710;6.502;2022-09-03T17:24:50;25.80;57.70
52555;DHT22;38455;52.710;6.502;2022-09-03T17:27:39;25.60;57.90
52555;DHT22;38455;52.710;6.502;2022-09-03T17:35:52;25.50;58.60
52555;DHT22;38455;52.710;6.502;2022-09-03T17:49:52;25.10;59.50
52555;DHT22;38455;52.710;6.502;2022-09-03T17:54:57;24.90;60.10
52555;DHT22;38455;52.710;6.502;2022-09-03T17:57:37;24.80;60.20
52555;DHT22;38455;52.710;6.502;2022-09-03T18:00:11;24.60;60.80
52555;DHT22;38455;52.710;6.502;2022-09-03T18:03:04;24.60;60.60
52555;DHT22;38455;52.710;6.502;2022-09-03T18:05:48;24.50;61.00
52555;DHT22;38455;52.710;6.502;2022-09-03T18:08:25;24.40;60.70
52555;DHT22;38455;52.710;6.502;2022-09-03T18:11:10;24.30;61.30
52555;DHT22;38455;52.710;6.502;2022-09-03T18:18:51;24.10;61.80
52555;DHT22;38455;52.710;6.502;2022-09-03T18:21:25;24.00;61.50
52555;DHT22;38455;52.710;6.502;2022-09-03T18:24:42;24.00;61.90
52555;DHT22;38455;52.710;6.502;2022-09-03T18:27:44;23.90;62.30
52555;DHT22;38455;52.710;6.502;2022-09-03T18:30:32;23.70;62.50
52555;DHT22;38455;52.710;6.502;2022-09-03T18:33:21;23.60;62.60
52555;DHT22;38455;52.710;6.502;2022-09-03T18:36:07;23.50;63.00
52555;DHT22;38455;52.710;6.502;2022-09-03T18:38:51;23.40;63.00
52555;DHT22;38455;52.710;6.502;2022-09-03T18:41:57;23.40;63.30
52555;DHT22;38455;52.710;6.502;2022-09-03T18:48:00;23.20;63.90
52555;DHT22;38455;52.710;6.502;2022-09-03T18:51:18;23.10;64.00
52555;DHT22;38455;52.710;6.502;2022-09-03T18:56:52;23.00;64.40
52555;DHT22;38455;52.710;6.502;2022-09-03T19:03:03;22.90;64.90
52555;DHT22;38455;52.710;6.502;2022-09-03T19:09:23;22.80;65.40
52555;DHT22;38455;52.710;6.502;2022-09-03T19:15:23;22.60;66.00
52555;DHT22;38455;52.710;6.502;2022-09-03T19:18:52;22.50;66.10
52555;DHT22;38455;52.710;6.502;2022-09-03T19:21:38;22.50;66.90
52555;DHT22;38455;52.710;6.502;2022-09-03T19:24:28;22.30;66.40
52555;DHT22;38455;52.710;6.502;2022-09-03T19:27:30;22.30;66.60
52555;DHT22;38455;52.710;6.502;2022-09-03T19:30:23;22.20;67.10
52555;DHT22;38455;52.710;6.502;2022-09-03T19:36:23;22.10;67.10
52555;DHT22;38455;52.710;6.502;2022-09-03T19:39:23;22.10;67.30
52555;DHT22;38455;52.710;6.502;2022-09-03T19:42:24;22.00;67.40
52555;DHT22;38455;52.710;6.502;2022-09-03T19:45:26;21.90;67.70
52555;DHT22;38455;52.710;6.502;2022-09-03T19:48:34;21.90;67.50
52555;DHT22;38455;52.710;6.502;2022-09-03T19:51:33;21.80;67.80
52555;DHT22;38455;52.710;6.502;2022-09-03T19:54:22;21.80;68.40
52555;DHT22;38455;52.710;6.502;2022-09-03T19:57:07;21.60;67.80
52555;DHT22;38455;52.710;6.502;2022-09-03T19:59:55;21.60;68.00
52555;DHT22;38455;52.710;6.502;2022-09-03T20:02:40;21.50;68.20
52555;DHT22;38455;52.710;6.502;2022-09-03T20:05:25;21.40;68.40
52555;DHT22;38455;52.710;6.502;2022-09-03T20:08:12;21.30;68.80
52555;DHT22;38455;52.710;6.502;2022-09-03T20:10:59;21.30;69.00
52555;DHT22;38455;52.710;6.502;2022-09-03T20:13:26;21.20;69.00
52555;DHT22;38455;52.710;6.502;2022-09-03T20:18:37;21.00;69.10
52555;DHT22;38455;52.710;6.502;2022-09-03T20:26:26;20.90;69.20
52555;DHT22;38455;52.710;6.502;2022-09-03T20:32:32;20.80;69.60
52555;DHT22;38455;52.710;6.502;2022-09-03T20:37:28;20.70;69.40
52555;DHT22;38455;52.710;6.502;2022-09-03T20:40:28;20.70;69.70
52555;DHT22;38455;52.710;6.502;2022-09-03T20:53:58;20.50;69.50
52555;DHT22;38455;52.710;6.502;2022-09-03T21:05:16;20.30;69.90
52555;DHT22;38455;52.710;6.502;2022-09-03T21:08:07;20.30;69.30
52555;DHT22;38455;52.710;6.502;2022-09-03T21:13:29;20.30;69.50
52555;DHT22;38455;52.710;6.502;2022-09-03T21:24:18;20.20;69.60
52555;DHT22;38455;52.710;6.502;2022-09-03T21:26:48;20.10;69.70
52555;DHT22;38455;52.710;6.502;2022-09-03T21:32:01;20.10;69.50
52555;DHT22;38455;52.710;6.502;2022-09-03T21:35:03;20.00;69.60
52555;DHT22;38455;52.710;6.502;2022-09-03T21:37:35;20.00;69.80
52555;DHT22;38455;52.710;6.502;2022-09-03T21:40:02;19.90;69.60
52555;DHT22;38455;52.710;6.502;2022-09-03T21:43:08;19.90;69.50
52555;DHT22;38455;52.710;6.502;2022-09-03T21:45:52;19.90;69.50
52555;DHT22;38455;52.710;6.502;2022-09-03T21:48:51;19.80;69.80
52555;DHT22;38455;52.710;6.502;2022-09-03T21:51:34;19.80;69.90
52555;DHT22;38455;52.710;6.502;2022-09-03T21:59:39;19.70;69.80
52555;DHT22;38455;52.710;6.502;2022-09-03T22:02:23;19.60;69.70